sensor_id;sensor_type;location;lat;lon;timestamp;temperature;humidity
2867;DHT22;1441;48.886;8.728;2023-04-24T00:02:08;12.00;91.60
2867;DHT22;1441;48.886;8.728;2023-04-24T00:04:37;11.90;92.20
2867;DHT22;1441;48.886;8.728;2023-04-24T00:07:06;12.00;91.80
2867;DHT22;1441;48.886;8.728;2023-04-24T00:09:32;11.90;92.70
2867;DHT22;1441;48.886;8.728;2023-04-24T00:11:58;11.90;92.20
2867;DHT22;1441;48.886;8.728;2023-04-24T00:14:24;12.00;92.20
2867;DHT22;1441;48.886;8.728;2023-04-24T00:16:49;11.90;92.70
2867;DHT22;1441;48.886;8.728;2023-04-24T00:19:15;11.90;92.90
2867;DHT22;1441;48.886;8.728;2023-04-24T00:21:41;11.80;93.40
2867;DHT22;1441;48.886;8.728;2023-04-24T00:24:07;11.80;93.70
2867;DHT22;1441;48.886;8.728;2023-04-24T00:26:34;11.80;93.70
2867;DHT22;1441;48.886;8.728;2023-04-24T00:29:00;11.90;93.20
2867;DHT22;1441;48.886;8.728;2023-04-24T00:31:25;11.80;93.40
2867;DHT22;1441;48.886;8.728;2023-04-24T00:33:51;11.80;93.80
2867;DHT22;1441;48.886;8.728;2023-04-24T00:36:17;11.80;93.80
2867;DHT22;1441;48.886;8.728;2023-04-24T00:38:44;11.90;93.80
2867;DHT22;1441;48.886;8.728;2023-04-24T00:41:11;11.90;93.30
2867;DHT22;1441;48.886;8.728;2023-04-24T00:43:36;11.90;93.30
2867;DHT22;1441;48.886;8.728;2023-04-24T00:46:02;12.00;93.40
2867;DHT22;1441;48.886;8.728;2023-04-24T00:48:28;11.90;93.70
2867;DHT22;1441;48.886;8.728;2023-04-24T00:50:53;11.90;93.80
2867;DHT22;1441;48.886;8.728;2023-04-24T00:53:19;11.90;94.30
2867;DHT22;1441;48.886;8.728;2023-04-24T00:55:45;12.00;93.70
2867;DHT22;1441;48.886;8.728;2023-04-24T00:58:12;12.00;93.60
2867;DHT22;1441;48.886;8.728;2023-04-24T01:00:38;12.00;93.80
2867;DHT22;1441;48.886;8.728;2023-04-24T01:03:05;11.90;94.40
2867;DHT22;1441;48.886;8.728;2023-04-24T01:05:31;11.80;94.80
2867;DHT22;1441;48.886;8.728;2023-04-24T01:07:58;11.90;94.60
2867;DHT22;1441;48.886;8.728;2023-04-24T01:10:25;12.00;94.20
2867;DHT22;1441;48.886;8.728;2023-04-24T01:12:53;12.00;94.20
2867;DHT22;1441;48.886;8.728;2023-04-24T01:15:18;12.00;94.20
2867;DHT22;1441;48.886;8.728;2023-04-24T01:17:44;11.90;94.40
2867;DHT22;1441;48.886;8.728;2023-04-24T01:20:10;11.70;95.40
2867;DHT22;1441;48.886;8.728;2023-04-24T01:22:36;11.60;96.40
2867;DHT22;1441;48.886;8.728;2023-04-24T01:25:02;11.70;95.50
2867;DHT22;1441;48.886;8.728;2023-04-24T01:27:28;11.80;95.10
2867;DHT22;1441;48.886;8.728;2023-04-24T01:29:54;11.70;95.40
2867;DHT22;1441;48.886;8.728;2023-04-24T01:32:20;11.70;95.20
2867;DHT22;1441;48.886;8.728;2023-04-24T01:34:46;11.80;95.20
2867;DHT22;1441;48.886;8.728;2023-04-24T01:37:12;11.80;95.10
2867;DHT22;1441;48.886;8.728;2023-04-24T01:39:38;11.80;95.10
2867;DHT22;1441;48.886;8.728;2023-04-24T01:42:04;11.80;95.00
2867;DHT22;1441;48.886;8.728;2023-04-24T01:44:30;11.80;94.90
2867;DHT22;1441;48.886;8.728;2023-04-24T01:46:56;11.90;94.70
2867;DHT22;1441;48.886;8.728;2023-04-24T01:49:22;11.80;95.00
2867;DHT22;1441;48.886;8.728;2023-04-24T01:51:47;11.80;95.00
2867;DHT22;1441;48.886;8.728;2023-04-24T01:54:13;11.80;95.00
2867;DHT22;1441;48.886;8.728;2023-04-24T01:56:43;11.80;94.80
2867;DHT22;1441;48.886;8.728;2023-04-24T01:59:10;11.90;94.80
2867;DHT22;1441;48.886;8.728;2023-04-24T02:01:36;11.90;94.70
2867;DHT22;1441;48.886;8.728;2023-04-24T02:04:03;11.90;95.00
2867;DHT22;1441;48.886;8.728;2023-04-24T02:06:28;11.90;96.00
2867;DHT22;1441;48.886;8.728;2023-04-24T02:08:54;11.80;96.30
2867;DHT22;1441;48.886;8.728;2023-04-24T02:11:20;11.70;96.30
2867;DHT22;1441;48.886;8.728;2023-04-24T02:13:45;11.70;96.90
2867;DHT22;1441;48.886;8.728;2023-04-24T02:16:11;11.70;97.60
2867;DHT22;1441;48.886;8.728;2023-04-24T02:18:36;11.70;97.40
2867;DHT22;1441;48.886;8.728;2023-04-24T02:21:02;11.70;97.30
2867;DHT22;1441;48.886;8.728;2023-04-24T02:23:27;11.80;97.50
2867;DHT22;1441;48.886;8.728;2023-04-24T02:25:53;11.80;97.30
2867;DHT22;1441;48.886;8.728;2023-04-24T02:28:19;11.70;97.80
2867;DHT22;1441;48.886;8.728;2023-04-24T02:30:45;11.60;98.30
2867;DHT22;1441;48.886;8.728;2023-04-24T02:33:11;11.50;99.00
2867;DHT22;1441;48.886;8.728;2023-04-24T02:35:37;11.50;99.30
2867;DHT22;1441;48.886;8.728;2023-04-24T02:38:03;11.30;99.90
2867;DHT22;1441;48.886;8.728;2023-04-24T02:40:29;11.10;99.90
2867;DHT22;1441;48.886;8.728;2023-04-24T02:42:55;11.20;99.90
2867;DHT22;1441;48.886;8.728;2023-04-24T02:45:20;11.50;99.50
2867;DHT22;1441;48.886;8.728;2023-04-24T02:47:46;11.50;99.00
2867;DHT22;1441;48.886;8.728;2023-04-24T02:50:11;11.40;99.20
2867;DHT22;1441;48.886;8.728;2023-04-24T02:52:37;11.50;98.90
2867;DHT22;1441;48.886;8.728;2023-04-24T02:55:03;11.40;99.00
2867;DHT22;1441;48.886;8.728;2023-04-24T02:57:28;11.50;98.60
2867;DHT22;1441;48.886;8.728;2023-04-24T02:59:54;11.50;98.30
2867;DHT22;1441;48.886;8.728;2023-04-24T03:02:19;11.40;98.60
2867;DHT22;1441;48.886;8.728;2023-04-24T03:04:46;11.40;99.30
2867;DHT22;1441;48.886;8.728;2023-04-24T03:07:13;11.40;99.50
2867;DHT22;1441;48.886;8.728;2023-04-24T03:09:40;11.30;99.80
2867;DHT22;1441;48.886;8.728;2023-04-24T03:12:05;11.30;99.90
2867;DHT22;1441;48.886;8.728;2023-04-24T03:14:31;11.30;99.90
2867;DHT22;1441;48.886;8.728;2023-04-24T03:16:57;11.20;99.90
2867;DHT22;1441;48.886;8.728;2023-04-24T03:19:22;11.20;99.90
2867;DHT22;1441;48.886;8.728;2023-04-24T03:21:48;11.20;99.90
2867;DHT22;1441;48.886;8.728;2023-04-24T03:24:14;11.20;99.90
2867;DHT22;1441;48.886;8.728;2023-04-24T03:26:39;11.10;99.90
2867;DHT22;1441;48.886;8.728;2023-04-24T03:29:05;11.10;99.90
2867;DHT22;1441;48.886;8.728;2023-04-24T03:31:30;11.00;99.90
2867;DHT22;1441;48.886;8.728;2023-04-24T03:33:56;10.90;99.90
2867;DHT22;1441;48.886;8.728;2023-04-24T03:36:22;10.90;99.90
2867;DHT22;1441;48.886;8.728;2023-04-24T03:38:47;10.90;99.90
2867;DHT22;1441;48.886;8.728;2023-04-24T03:41:13;10.80;99.90
2867;DHT22;1441;48.886;8.728;2023-04-24T03:43:39;10.80;99.90
2867;DHT22;1441;48.886;8.728;2023-04-24T03:46:04;10.80;99.90
2867;DHT22;1441;48.886;8.728;2023-04-24T03:48:30;10.60;99.90
2867;DHT22;1441;48.886;8.728;2023-04-24T03:50:55;10.50;99.90
2867;DHT22;1441;48.886;8.728;2023-04-24T03:53:21;10.40;99.90
2867;DHT22;1441;48.886;8.728;2023-04-24T03:55:47;10.40;99.90
2867;DHT22;1441;48.886;8.728;2023-04-24T03:58:12;10.30;99.90
2867;DHT22;1441;48.886;8.728;2023-04-24T04:00:39;10.20;99.90
2867;DHT22;1441;48.886;8.728;2023-04-24T04:03:06;10.10;99.90
2867;DHT22;1441;48.886;8.728;2023-04-24T04:05:31;10.10;99.90
2867;DHT22;1441;48.886;8.728;2023-04-24T04:07:57;10.00;99.90
2867;DHT22;1441;48.886;8.728;2023-04-24T04:10:22;10.00;99.90
2867;DHT22;1441;48.886;8.728;2023-04-24T04:12:48;9.90;99.90
2867;DHT22;1441;48.886;8.728;2023-04-24T04:15:13;9.90;99.90
2867;DHT22;1441;48.886;8.728;2023-04-24T04:17:39;9.90;99.90
2867;DHT22;1441;48.886;8.728;2023-04-24T04:20:05;9.90;99.90
2867;DHT22;1441;48.886;8.728;2023-04-24T04:22:36;9.80;99.90
2867;DHT22;1441;48.886;8.728;2023-04-24T04:25:02;9.80;99.90
2867;DHT22;1441;48.886;8.728;2023-04-24T04:27:28;9.70;99.90
2867;DHT22;1441;48.886;8.728;2023-04-24T04:29:58;9.70;99.90
2867;DHT22;1441;48.886;8.728;2023-04-24T04:32:24;9.70;99.90
2867;DHT22;1441;48.886;8.728;2023-04-24T04:34:51;9.60;99.90
2867;DHT22;1441;48.886;8.728;2023-04-24T04:37:18;9.70;99.90
2867;DHT22;1441;48.886;8.728;2023-04-24T04:39:44;9.70;99.90
2867;DHT22;1441;48.886;8.728;2023-04-24T04:42:10;9.60;99.90
2867;DHT22;1441;48.886;8.728;2023-04-24T04:44:35;9.60;99.90
2867;DHT22;1441;48.886;8.728;2023-04-24T04:47:01;9.60;99.90
2867;DHT22;1441;48.886;8.728;2023-04-24T04:49:31;9.50;99.90
2867;DHT22;1441;48.886;8.728;2023-04-24T04:51:57;9.60;99.90
2867;DHT22;1441;48.886;8.728;2023-04-24T04:54:22;9.60;99.90
2867;DHT22;1441;48.886;8.728;2023-04-24T04:56:50;9.60;99.90
2867;DHT22;1441;48.886;8.728;2023-04-24T04:59:16;9.60;99.90
2867;DHT22;1441;48.886;8.728;2023-04-24T05:01:41;9.60;99.90
2867;DHT22;1441;48.886;8.728;2023-04-24T05:04:07;9.60;99.90
2867;DHT22;1441;48.886;8.728;2023-04-24T05:06:32;9.50;99.90
2867;DHT22;1441;48.886;8.728;2023-04-24T05:08:58;9.60;99.90
2867;DHT22;1441;48.886;8.728;2023-04-24T05:11:24;9.60;99.90
2867;DHT22;1441;48.886;8.728;2023-04-24T05:13:49;9.70;99.90
2867;DHT22;1441;48.886;8.728;2023-04-24T05:16:15;9.70;99.90
2867;DHT22;1441;48.886;8.728;2023-04-24T05:18:41;9.70;99.90
2867;DHT22;1441;48.886;8.728;2023-04-24T05:21:06;9.70;99.90
2867;DHT22;1441;48.886;8.728;2023-04-24T05:23:32;9.80;99.90
2867;DHT22;1441;48.886;8.728;2023-04-24T05:25:57;10.10;99.90
2867;DHT22;1441;48.886;8.728;2023-04-24T05:28:23;10.30;99.90
2867;DHT22;1441;48.886;8.728;2023-04-24T05:30:48;10.20;99.90
2867;DHT22;1441;48.886;8.728;2023-04-24T05:33:14;10.20;99.90
2867;DHT22;1441;48.886;8.728;2023-04-24T05:35:40;10.40;99.90
2867;DHT22;1441;48.886;8.728;2023-04-24T05:38:11;10.50;99.90
2867;DHT22;1441;48.886;8.728;2023-04-24T05:40:36;10.80;99.90
2867;DHT22;1441;48.886;8.728;2023-04-24T05:43:02;11.00;99.90
2867;DHT22;1441;48.886;8.728;2023-04-24T05:45:27;11.10;99.90
2867;DHT22;1441;48.886;8.728;2023-04-24T05:47:53;11.10;99.90
2867;DHT22;1441;48.886;8.728;2023-04-24T05:50:19;10.80;99.90
2867;DHT22;1441;48.886;8.728;2023-04-24T05:52:45;10.60;99.90
2867;DHT22;1441;48.886;8.728;2023-04-24T05:55:10;10.50;99.90
2867;DHT22;1441;48.886;8.728;2023-04-24T05:57:36;10.70;99.90
2867;DHT22;1441;48.886;8.728;2023-04-24T06:00:02;10.70;99.90
2867;DHT22;1441;48.886;8.728;2023-04-24T06:02:29;10.70;99.90
2867;DHT22;1441;48.886;8.728;2023-04-24T06:04:58;10.90;99.90
2867;DHT22;1441;48.886;8.728;2023-04-24T06:07:25;11.10;99.90
2867;DHT22;1441;48.886;8.728;2023-04-24T06:09:51;11.10;99.60
2867;DHT22;1441;48.886;8.728;2023-04-24T06:12:17;11.00;99.60
2867;DHT22;1441;48.886;8.728;2023-04-24T06:14:43;10.90;99.50
2867;DHT22;1441;48.886;8.728;2023-04-24T06:17:09;10.70;99.90
2867;DHT22;1441;48.886;8.728;2023-04-24T06:19:34;10.70;99.90
2867;DHT22;1441;48.886;8.728;2023-04-24T06:22:00;11.50;98.40
2867;DHT22;1441;48.886;8.728;2023-04-24T06:24:29;13.50;92.30
2867;DHT22;1441;48.886;8.728;2023-04-24T06:26:54;14.10;88.30
2867;DHT22;1441;48.886;8.728;2023-04-24T06:29:20;13.60;89.10
2867;DHT22;1441;48.886;8.728;2023-04-24T06:31:45;13.80;88.90
2867;DHT22;1441;48.886;8.728;2023-04-24T06:34:11;14.10;88.00
2867;DHT22;1441;48.886;8.728;2023-04-24T06:36:37;14.10;87.00
2867;DHT22;1441;48.886;8.728;2023-04-24T06:39:02;13.90;87.20
2867;DHT22;1441;48.886;8.728;2023-04-24T06:41:28;13.80;87.20
2867;DHT22;1441;48.886;8.728;2023-04-24T06:43:54;13.80;87.10
2867;DHT22;1441;48.886;8.728;2023-04-24T06:46:20;13.30;88.60
2867;DHT22;1441;48.886;8.728;2023-04-24T06:48:49;13.00;89.70
2867;DHT22;1441;48.886;8.728;2023-04-24T06:51:15;12.80;90.70
2867;DHT22;1441;48.886;8.728;2023-04-24T06:53:40;13.20;89.10
2867;DHT22;1441;48.886;8.728;2023-04-24T06:56:06;13.90;88.10
2867;DHT22;1441;48.886;8.728;2023-04-24T06:58:31;14.20;85.60
2867;DHT22;1441;48.886;8.728;2023-04-24T07:00:57;14.10;86.10
2867;DHT22;1441;48.886;8.728;2023-04-24T07:03:23;14.00;86.10
2867;DHT22;1441;48.886;8.728;2023-04-24T07:05:48;13.90;85.10
2867;DHT22;1441;48.886;8.728;2023-04-24T07:08:14;14.50;83.50
2867;DHT22;1441;48.886;8.728;2023-04-24T07:10:42;15.20;82.60
2867;DHT22;1441;48.886;8.728;2023-04-24T07:13:08;14.60;82.00
2867;DHT22;1441;48.886;8.728;2023-04-24T07:15:34;15.00;81.30
2867;DHT22;1441;48.886;8.728;2023-04-24T07:18:00;14.10;82.20
2867;DHT22;1441;48.886;8.728;2023-04-24T07:20:25;13.10;83.70
2867;DHT22;1441;48.886;8.728;2023-04-24T07:22:51;12.30;84.80
2867;DHT22;1441;48.886;8.728;2023-04-24T07:25:19;12.20;86.30
2867;DHT22;1441;48.886;8.728;2023-04-24T07:27:44;12.90;85.40
2867;DHT22;1441;48.886;8.728;2023-04-24T07:30:11;12.70;85.90
2867;DHT22;1441;48.886;8.728;2023-04-24T07:32:36;12.20;87.10
2867;DHT22;1441;48.886;8.728;2023-04-24T07:35:02;12.60;87.00
2867;DHT22;1441;48.886;8.728;2023-04-24T07:37:28;12.60;87.70
2867;DHT22;1441;48.886;8.728;2023-04-24T07:39:54;13.10;86.70
2867;DHT22;1441;48.886;8.728;2023-04-24T07:42:19;12.40;83.90
2867;DHT22;1441;48.886;8.728;2023-04-24T07:44:45;12.30;85.00
2867;DHT22;1441;48.886;8.728;2023-04-24T07:47:13;12.10;85.20
2867;DHT22;1441;48.886;8.728;2023-04-24T07:49:41;12.40;84.90
2867;DHT22;1441;48.886;8.728;2023-04-24T07:52:07;13.60;82.00
2867;DHT22;1441;48.886;8.728;2023-04-24T07:54:32;15.10;77.70
2867;DHT22;1441;48.886;8.728;2023-04-24T07:56:58;16.30;73.80
2867;DHT22;1441;48.886;8.728;2023-04-24T07:59:24;16.70;71.10
2867;DHT22;1441;48.886;8.728;2023-04-24T08:01:49;17.00;70.70
2867;DHT22;1441;48.886;8.728;2023-04-24T08:04:15;17.40;68.00
2867;DHT22;1441;48.886;8.728;2023-04-24T08:06:40;17.10;68.90
2867;DHT22;1441;48.886;8.728;2023-04-24T08:09:06;18.10;68.00
2867;DHT22;1441;48.886;8.728;2023-04-24T08:11:32;18.50;66.50
2867;DHT22;1441;48.886;8.728;2023-04-24T08:13:58;18.30;66.40
2867;DHT22;1441;48.886;8.728;2023-04-24T08:16:23;18.50;65.20
2867;DHT22;1441;48.886;8.728;2023-04-24T08:18:49;18.30;64.40
2867;DHT22;1441;48.886;8.728;2023-04-24T08:21:15;18.00;64.90
2867;DHT22;1441;48.886;8.728;2023-04-24T08:23:44;18.40;65.10
2867;DHT22;1441;48.886;8.728;2023-04-24T08:26:09;18.70;63.60
2867;DHT22;1441;48.886;8.728;2023-04-24T08:28:36;19.60;62.90
2867;DHT22;1441;48.886;8.728;2023-04-24T08:31:02;20.10;63.30
2867;DHT22;1441;48.886;8.728;2023-04-24T08:33:28;20.10;62.40
2867;DHT22;1441;48.886;8.728;2023-04-24T08:36:00;18.90;64.90
2867;DHT22;1441;48.886;8.728;2023-04-24T08:38:26;16.90;68.80
2867;DHT22;1441;48.886;8.728;2023-04-24T08:40:51;15.30;72.40
2867;DHT22;1441;48.886;8.728;2023-04-24T08:43:17;14.50;75.60
2867;DHT22;1441;48.886;8.728;2023-04-24T08:45:43;14.10;78.10
2867;DHT22;1441;48.886;8.728;2023-04-24T08:48:09;13.50;76.60
2867;DHT22;1441;48.886;8.728;2023-04-24T08:50:35;13.90;77.10
2867;DHT22;1441;48.886;8.728;2023-04-24T08:53:01;14.80;71.90
2867;DHT22;1441;48.886;8.728;2023-04-24T08:55:29;16.40;68.90
2867;DHT22;1441;48.886;8.728;2023-04-24T08:57:55;17.60;65.80
2867;DHT22;1441;48.886;8.728;2023-04-24T09:00:21;16.80;65.60
2867;DHT22;1441;48.886;8.728;2023-04-24T09:02:49;16.10;66.80
2867;DHT22;1441;48.886;8.728;2023-04-24T09:05:16;15.40;69.90
2867;DHT22;1441;48.886;8.728;2023-04-24T09:07:53;14.60;70.80
2867;DHT22;1441;48.886;8.728;2023-04-24T09:10:20;13.80;73.60
2867;DHT22;1441;48.886;8.728;2023-04-24T09:12:46;13.50;75.30
2867;DHT22;1441;48.886;8.728;2023-04-24T09:15:12;13.10;77.50
2867;DHT22;1441;48.886;8.728;2023-04-24T09:17:38;13.10;76.90
2867;DHT22;1441;48.886;8.728;2023-04-24T09:20:04;14.40;74.80
2867;DHT22;1441;48.886;8.728;2023-04-24T09:22:30;16.20;70.50
2867;DHT22;1441;48.886;8.728;2023-04-24T09:25:07;17.30;67.60
2867;DHT22;1441;48.886;8.728;2023-04-24T09:27:34;17.90;66.20
2867;DHT22;1441;48.886;8.728;2023-04-24T09:30:01;17.50;65.80
2867;DHT22;1441;48.886;8.728;2023-04-24T09:32:27;17.60;65.40
2867;DHT22;1441;48.886;8.728;2023-04-24T09:35:09;17.50;64.10
2867;DHT22;1441;48.886;8.728;2023-04-24T09:37:37;16.90;66.70
2867;DHT22;1441;48.886;8.728;2023-04-24T09:40:11;18.00;66.80
2867;DHT22;1441;48.886;8.728;2023-04-24T09:42:38;17.70;64.50
2867;DHT22;1441;48.886;8.728;2023-04-24T09:45:08;16.50;66.10
2867;DHT22;1441;48.886;8.728;2023-04-24T09:47:38;15.70;68.80
2867;DHT22;1441;48.886;8.728;2023-04-24T09:50:16;15.60;68.20
2867;DHT22;1441;48.886;8.728;2023-04-24T09:53:01;15.20;69.30
2867;DHT22;1441;48.886;8.728;2023-04-24T09:55:27;14.70;70.60
2867;DHT22;1441;48.886;8.728;2023-04-24T09:57:54;14.30;71.70
2867;DHT22;1441;48.886;8.728;2023-04-24T10:00:31;14.00;72.20
2867;DHT22;1441;48.886;8.728;2023-04-24T10:02:58;13.30;73.40
2867;DHT22;1441;48.886;8.728;2023-04-24T10:05:27;12.80;76.50
2867;DHT22;1441;48.886;8.728;2023-04-24T10:07:56;12.60;77.80
2867;DHT22;1441;48.886;8.728;2023-04-24T10:10:22;12.70;78.20
2867;DHT22;1441;48.886;8.728;2023-04-24T10:12:49;12.60;79.10
2867;DHT22;1441;48.886;8.728;2023-04-24T10:15:16;12.70;79.50
2867;DHT22;1441;48.886;8.728;2023-04-24T10:17:48;12.80;78.80
2867;DHT22;1441;48.886;8.728;2023-04-24T10:20:18;12.70;79.00
2867;DHT22;1441;48.886;8.728;2023-04-24T10:22:46;12.40;79.60
2867;DHT22;1441;48.886;8.728;2023-04-24T10:25:16;12.10;79.40
2867;DHT22;1441;48.886;8.728;2023-04-24T10:27:43;12.00;80.20
2867;DHT22;1441;48.886;8.728;2023-04-24T10:30:12;12.10;81.10
2867;DHT22;1441;48.886;8.728;2023-04-24T10:32:38;11.90;81.10
2867;DHT22;1441;48.886;8.728;2023-04-24T10:35:04;11.70;81.40
2867;DHT22;1441;48.886;8.728;2023-04-24T10:37:37;11.50;83.00
2867;DHT22;1441;48.886;8.728;2023-04-24T10:40:03;11.50;84.00
2867;DHT22;1441;48.886;8.728;2023-04-24T10:42:29;11.80;83.80
2867;DHT22;1441;48.886;8.728;2023-04-24T10:44:54;11.90;82.20
2867;DHT22;1441;48.886;8.728;2023-04-24T10:47:21;12.10;81.00
2867;DHT22;1441;48.886;8.728;2023-04-24T10:49:50;12.80;79.80
2867;DHT22;1441;48.886;8.728;2023-04-24T10:52:16;13.30;77.80
2867;DHT22;1441;48.886;8.728;2023-04-24T10:54:46;13.60;76.30
2867;DHT22;1441;48.886;8.728;2023-04-24T10:59:44;14.00;76.60
2867;DHT22;1441;48.886;8.728;2023-04-24T11:02:09;13.80;75.00
2867;DHT22;1441;48.886;8.728;2023-04-24T11:04:35;13.70;75.70
2867;DHT22;1441;48.886;8.728;2023-04-24T11:07:02;13.60;77.30
2867;DHT22;1441;48.886;8.728;2023-04-24T11:09:31;13.60;76.40
2867;DHT22;1441;48.886;8.728;2023-04-24T11:12:23;13.20;76.10
2867;DHT22;1441;48.886;8.728;2023-04-24T11:14:59;12.70;77.90
2867;DHT22;1441;48.886;8.728;2023-04-24T11:17:36;12.60;78.70
2867;DHT22;1441;48.886;8.728;2023-04-24T11:20:10;12.70;78.70
2867;DHT22;1441;48.886;8.728;2023-04-24T11:22:38;12.90;78.50
2867;DHT22;1441;48.886;8.728;2023-04-24T11:25:05;12.80;79.10
2867;DHT22;1441;48.886;8.728;2023-04-24T11:27:41;12.80;79.60
2867;DHT22;1441;48.886;8.728;2023-04-24T11:30:08;12.80;80.00
2867;DHT22;1441;48.886;8.728;2023-04-24T11:32:42;12.70;78.20
2867;DHT22;1441;48.886;8.728;2023-04-24T11:37:41;12.70;78.40
2867;DHT22;1441;48.886;8.728;2023-04-24T11:40:11;12.80;79.40
2867;DHT22;1441;48.886;8.728;2023-04-24T11:42:38;12.70;80.00
2867;DHT22;1441;48.886;8.728;2023-04-24T11:45:12;12.60;81.60
2867;DHT22;1441;48.886;8.728;2023-04-24T11:47:39;12.50;80.00
2867;DHT22;1441;48.886;8.728;2023-04-24T11:50:07;12.30;80.20
2867;DHT22;1441;48.886;8.728;2023-04-24T11:52:37;12.30;80.90
2867;DHT22;1441;48.886;8.728;2023-04-24T11:55:03;12.20;81.60
2867;DHT22;1441;48.886;8.728;2023-04-24T11:57:29;12.20;81.50
2867;DHT22;1441;48.886;8.728;2023-04-24T11:59:59;12.10;81.80
2867;DHT22;1441;48.886;8.728;2023-04-24T12:02:27;12.20;81.90
2867;DHT22;1441;48.886;8.728;2023-04-24T12:04:53;12.10;82.70
2867;DHT22;1441;48.886;8.728;2023-04-24T12:07:19;11.90;85.00
2867;DHT22;1441;48.886;8.728;2023-04-24T12:09:55;11.90;85.30
2867;DHT22;1441;48.886;8.728;2023-04-24T12:12:23;12.00;85.30
2867;DHT22;1441;48.886;8.728;2023-04-24T12:14:53;12.10;83.00
2867;DHT22;1441;48.886;8.728;2023-04-24T12:17:26;12.30;83.60
2867;DHT22;1441;48.886;8.728;2023-04-24T12:19:52;12.50;82.70
2867;DHT22;1441;48.886;8.728;2023-04-24T12:22:22;12.40;83.10
2867;DHT22;1441;48.886;8.728;2023-04-24T12:25:04;12.30;81.00
2867;DHT22;1441;48.886;8.728;2023-04-24T12:27:33;12.30;82.20
2867;DHT22;1441;48.886;8.728;2023-04-24T12:30:02;12.30;82.00
2867;DHT22;1441;48.886;8.728;2023-04-24T12:32:27;12.10;82.60
2867;DHT22;1441;48.886;8.728;2023-04-24T12:34:54;11.90;82.70
2867;DHT22;1441;48.886;8.728;2023-04-24T12:37:22;11.80;82.80
2867;DHT22;1441;48.886;8.728;2023-04-24T12:40:09;11.80;83.70
2867;DHT22;1441;48.886;8.728;2023-04-24T12:42:37;11.50;84.50
2867;DHT22;1441;48.886;8.728;2023-04-24T12:45:06;11.40;85.30
2867;DHT22;1441;48.886;8.728;2023-04-24T12:47:34;11.30;86.10
2867;DHT22;1441;48.886;8.728;2023-04-24T12:50:00;11.40;86.70
2867;DHT22;1441;48.886;8.728;2023-04-24T12:52:28;11.50;86.60
2867;DHT22;1441;48.886;8.728;2023-04-24T12:54:56;11.70;86.10
2867;DHT22;1441;48.886;8.728;2023-04-24T12:57:22;11.80;86.50
2867;DHT22;1441;48.886;8.728;2023-04-24T12:59:48;12.00;86.00
2867;DHT22;1441;48.886;8.728;2023-04-24T13:02:14;12.20;85.20
2867;DHT22;1441;48.886;8.728;2023-04-24T13:04:44;12.30;85.30
2867;DHT22;1441;48.886;8.728;2023-04-24T13:07:10;12.50;84.60
2867;DHT22;1441;48.886;8.728;2023-04-24T13:09:35;12.40;82.90
2867;DHT22;1441;48.886;8.728;2023-04-24T13:12:01;12.40;82.10
2867;DHT22;1441;48.886;8.728;2023-04-24T13:14:27;12.50;81.20
2867;DHT22;1441;48.886;8.728;2023-04-24T13:16:52;12.50;80.60
2867;DHT22;1441;48.886;8.728;2023-04-24T13:19:18;12.50;81.20
2867;DHT22;1441;48.886;8.728;2023-04-24T13:21:43;12.60;80.70
2867;DHT22;1441;48.886;8.728;2023-04-24T13:24:10;12.80;80.60
2867;DHT22;1441;48.886;8.728;2023-04-24T13:26:35;12.90;79.60
2867;DHT22;1441;48.886;8.728;2023-04-24T13:29:01;12.80;79.10
2867;DHT22;1441;48.886;8.728;2023-04-24T13:31:26;12.80;79.80
2867;DHT22;1441;48.886;8.728;2023-04-24T13:33:52;12.60;80.30
2867;DHT22;1441;48.886;8.728;2023-04-24T13:36:17;12.80;80.00
2867;DHT22;1441;48.886;8.728;2023-04-24T13:38:44;12.70;78.80
2867;DHT22;1441;48.886;8.728;2023-04-24T13:41:10;12.60;79.50
2867;DHT22;1441;48.886;8.728;2023-04-24T13:43:35;12.60;79.90
2867;DHT22;1441;48.886;8.728;2023-04-24T13:46:01;12.50;80.30
2867;DHT22;1441;48.886;8.728;2023-04-24T13:48:30;12.40;80.30
2867;DHT22;1441;48.886;8.728;2023-04-24T13:50:55;12.20;80.70
2867;DHT22;1441;48.886;8.728;2023-04-24T13:53:21;12.30;80.40
2867;DHT22;1441;48.886;8.728;2023-04-24T13:55:47;12.30;79.80
2867;DHT22;1441;48.886;8.728;2023-04-24T13:58:12;12.50;80.40
2867;DHT22;1441;48.886;8.728;2023-04-24T14:00:38;12.90;78.10
2867;DHT22;1441;48.886;8.728;2023-04-24T14:03:04;13.20;79.60
2867;DHT22;1441;48.886;8.728;2023-04-24T14:05:30;13.50;77.80
2867;DHT22;1441;48.886;8.728;2023-04-24T14:07:55;13.50;77.20
2867;DHT22;1441;48.886;8.728;2023-04-24T14:10:21;13.20;77.10
2867;DHT22;1441;48.886;8.728;2023-04-24T14:12:46;13.00;78.60
2867;DHT22;1441;48.886;8.728;2023-04-24T14:15:12;13.10;78.20
2867;DHT22;1441;48.886;8.728;2023-04-24T14:17:39;13.20;77.90
2867;DHT22;1441;48.886;8.728;2023-04-24T14:20:05;13.30;77.20
2867;DHT22;1441;48.886;8.728;2023-04-24T14:22:32;13.20;78.30
2867;DHT22;1441;48.886;8.728;2023-04-24T14:24:58;13.10;78.30
2867;DHT22;1441;48.886;8.728;2023-04-24T14:27:24;13.10;78.80
2867;DHT22;1441;48.886;8.728;2023-04-24T14:29:50;12.90;78.10
2867;DHT22;1441;48.886;8.728;2023-04-24T14:32:15;13.10;78.90
2867;DHT22;1441;48.886;8.728;2023-04-24T14:34:41;13.30;77.10
2867;DHT22;1441;48.886;8.728;2023-04-24T14:37:07;13.60;78.10
2867;DHT22;1441;48.886;8.728;2023-04-24T14:39:33;13.90;78.10
2867;DHT22;1441;48.886;8.728;2023-04-24T14:42:00;13.80;75.50
2867;DHT22;1441;48.886;8.728;2023-04-24T14:44:26;13.40;76.90
2867;DHT22;1441;48.886;8.728;2023-04-24T14:46:52;13.00;77.50
2867;DHT22;1441;48.886;8.728;2023-04-24T14:49:18;12.70;79.20
2867;DHT22;1441;48.886;8.728;2023-04-24T14:51:44;12.50;78.80
2867;DHT22;1441;48.886;8.728;2023-04-24T14:54:09;12.30;78.90
2867;DHT22;1441;48.886;8.728;2023-04-24T14:56:35;12.50;79.10
2867;DHT22;1441;48.886;8.728;2023-04-24T14:59:01;12.70;78.90
2867;DHT22;1441;48.886;8.728;2023-04-24T15:01:26;12.90;77.00
2867;DHT22;1441;48.886;8.728;2023-04-24T15:03:52;13.00;77.70
2867;DHT22;1441;48.886;8.728;2023-04-24T15:06:18;13.10;77.60
2867;DHT22;1441;48.886;8.728;2023-04-24T15:08:43;13.00;77.40
2867;DHT22;1441;48.886;8.728;2023-04-24T15:11:10;12.90;76.70
2867;DHT22;1441;48.886;8.728;2023-04-24T15:13:36;12.80;78.80
2867;DHT22;1441;48.886;8.728;2023-04-24T15:16:01;12.80;79.00
2867;DHT22;1441;48.886;8.728;2023-04-24T15:18:27;12.80;78.90
2867;DHT22;1441;48.886;8.728;2023-04-24T15:20:54;12.60;79.70
2867;DHT22;1441;48.886;8.728;2023-04-24T15:23:20;12.80;79.70
2867;DHT22;1441;48.886;8.728;2023-04-24T15:25:46;13.00;78.90
2867;DHT22;1441;48.886;8.728;2023-04-24T15:28:11;13.10;79.20
2867;DHT22;1441;48.886;8.728;2023-04-24T15:30:37;12.90;80.00
2867;DHT22;1441;48.886;8.728;2023-04-24T15:33:03;12.80;79.70
2867;DHT22;1441;48.886;8.728;2023-04-24T15:35:29;12.90;79.50
2867;DHT22;1441;48.886;8.728;2023-04-24T15:37:54;13.00;79.90
2867;DHT22;1441;48.886;8.728;2023-04-24T15:40:20;13.10;79.60
2867;DHT22;1441;48.886;8.728;2023-04-24T15:42:46;13.00;79.00
2867;DHT22;1441;48.886;8.728;2023-04-24T15:45:11;13.00;78.70
2867;DHT22;1441;48.886;8.728;2023-04-24T15:47:38;13.20;78.10
2867;DHT22;1441;48.886;8.728;2023-04-24T15:50:04;13.10;77.40
2867;DHT22;1441;48.886;8.728;2023-04-24T15:52:30;12.80;77.70
2867;DHT22;1441;48.886;8.728;2023-04-24T15:54:56;13.00;78.60
2867;DHT22;1441;48.886;8.728;2023-04-24T15:57:22;13.00;79.10
2867;DHT22;1441;48.886;8.728;2023-04-24T15:59:47;13.10;78.00
2867;DHT22;1441;48.886;8.728;2023-04-24T16:02:14;13.00;76.90
2867;DHT22;1441;48.886;8.728;2023-04-24T16:04:45;12.90;76.50